createdAt,value
2022-12-03T00:00:12.183Z,85.67
2022-12-03T00:01:06.882Z,86.32
2022-12-03T00:02:06.934Z,86.25
2022-12-03T00:03:07.088Z,85.69
2022-12-03T00:04:06.985Z,85.37
2022-12-03T00:05:06.915Z,85.37
2022-12-03T00:06:06.899Z,85.52
2022-12-03T00:07:06.883Z,85.52
2022-12-03T00:08:06.960Z,85.39
2022-12-03T00:09:06.879Z,85.24
2022-12-03T00:10:06.894Z,84.9
2022-12-03T00:11:06.881Z,84.71
2022-12-03T00:12:06.881Z,84.61
2022-12-03T00:13:06.880Z,84.59
2022-12-03T00:14:06.895Z,84.8
2022-12-03T00:15:06.891Z,85.08
2022-12-03T00:16:06.970Z,85.04
2022-12-03T00:17:06.874Z,85.04
2022-12-03T00:18:06.877Z,84.77
2022-12-03T00:19:06.878Z,84.77
2022-12-03T00:20:06.892Z,84.73
2022-12-03T00:21:06.876Z,84.54
2022-12-03T00:22:06.878Z,84.56
2022-12-03T00:23:06.879Z,84.65
2022-12-03T00:24:06.883Z,84.52
2022-12-03T00:25:06.905Z,84.25
2022-12-03T00:26:06.880Z,84.03
2022-12-03T00:27:06.890Z,84.22
2022-12-03T00:28:06.904Z,84.09
2022-12-03T00:29:06.916Z,83.98
2022-12-03T00:30:06.913Z,83.98
2022-12-03T00:31:06.976Z,84.53
2022-12-03T00:32:06.899Z,84.5
2022-12-03T00:33:06.888Z,84.2
2022-12-03T00:34:06.892Z,84.27
2022-12-03T00:35:06.891Z,84.27
2022-12-03T00:36:06.903Z,84.06
2022-12-03T00:37:06.913Z,84.03
2022-12-03T00:38:06.894Z,84.13
2022-12-03T00:39:06.899Z,84.31
2022-12-03T00:40:06.910Z,84.26
2022-12-03T00:41:06.896Z,84.08
2022-12-03T00:42:06.894Z,84.32
2022-12-03T00:43:06.905Z,84.1
2022-12-03T00:44:06.915Z,83.98
2022-12-03T00:45:06.907Z,84.05
2022-12-03T00:46:06.935Z,83.72
2022-12-03T00:47:07.048Z,84
2022-12-03T00:48:06.893Z,84.54
2022-12-03T00:49:06.930Z,84.4
2022-12-03T00:50:06.909Z,84.14
2022-12-03T00:51:06.897Z,83.96
2022-12-03T00:52:06.894Z,84.05
2022-12-03T00:53:06.887Z,83.56
2022-12-03T00:54:06.892Z,83.25
2022-12-03T00:55:06.983Z,83.25
2022-12-03T00:56:06.897Z,83.51
2022-12-03T00:57:06.899Z,83.75
2022-12-03T00:58:06.879Z,84.21
2022-12-03T00:59:06.909Z,84.58
2022-12-03T01:00:06.920Z,84.58
2022-12-03T01:01:06.891Z,85.2
2022-12-03T01:02:06.959Z,84.3
2022-12-03T01:03:06.891Z,84.25
2022-12-03T01:04:06.896Z,84.15
2022-12-03T01:05:06.986Z,84.26
2022-12-03T01:06:06.892Z,84.43
2022-12-03T01:07:06.904Z,84.39
2022-12-03T01:08:06.976Z,84.53
2022-12-03T01:09:06.887Z,84.52
2022-12-03T01:10:06.908Z,84.86
2022-12-03T01:11:06.902Z,84.88
2022-12-03T01:12:06.900Z,84.57
2022-12-03T01:13:06.904Z,84.32
2022-12-03T01:14:06.920Z,84.37
2022-12-03T01:15:06.912Z,84.65
2022-12-03T01:16:06.978Z,84.8
2022-12-03T01:17:06.908Z,84.92
2022-12-03T01:18:06.884Z,84.92
2022-12-03T01:19:06.901Z,85.02
2022-12-03T01:20:06.901Z,84.71
2022-12-03T01:21:06.874Z,84.77
2022-12-03T01:22:06.876Z,84.58
2022-12-03T01:23:06.884Z,84.48
2022-12-03T01:24:06.876Z,85.06
2022-12-03T01:25:06.890Z,84.96
2022-12-03T01:26:06.876Z,84.89
2022-12-03T01:27:06.890Z,85.06
2022-12-03T01:28:06.875Z,84.96
2022-12-03T01:29:06.894Z,85.24
2022-12-03T01:30:06.917Z,85.36
2022-12-03T01:31:06.920Z,85.31
2022-12-03T01:32:06.978Z,85.74
2022-12-03T01:33:06.879Z,85.66
2022-12-03T01:34:06.881Z,85.62
2022-12-03T01:35:06.955Z,85.55
2022-12-03T01:36:06.878Z,85.88
2022-12-03T01:37:06.875Z,86.07
2022-12-03T01:38:06.973Z,85.8
2022-12-03T01:39:06.876Z,85.92
2022-12-03T01:40:06.915Z,85.94
2022-12-03T01:41:11.480Z,85.94
2022-12-03T01:42:06.888Z,85.62
2022-12-03T01:43:06.901Z,85.41
2022-12-03T01:44:06.911Z,85.53
2022-12-03T01:45:06.919Z,85.28
2022-12-03T01:46:06.948Z,85.42
2022-12-03T01:47:06.987Z,85.45
2022-12-03T01:48:06.900Z,85.69
2022-12-03T01:49:06.898Z,85.95
2022-12-03T01:50:06.912Z,86.07
2022-12-03T01:51:06.903Z,86.07
2022-12-03T01:52:06.892Z,85.94
2022-12-03T01:53:06.889Z,86
2022-12-03T01:54:06.894Z,86.1
2022-12-03T01:55:06.913Z,86.11
2022-12-03T01:56:06.893Z,86.39
2022-12-03T01:57:06.898Z,87.03
2022-12-03T01:58:06.892Z,86.88
2022-12-03T01:59:06.909Z,87.34
2022-12-03T02:00:06.924Z,87.34
2022-12-03T02:01:06.905Z,87.45
2022-12-03T02:02:06.951Z,87.51
2022-12-03T02:03:06.904Z,87.42
2022-12-03T02:04:06.929Z,86.98
2022-12-03T02:05:06.924Z,86.55
2022-12-03T02:06:06.899Z,86.51
2022-12-03T02:07:06.896Z,86.51
2022-12-03T02:08:06.949Z,86.95
2022-12-03T02:09:06.877Z,86.83
2022-12-03T02:10:06.909Z,86.71
2022-12-03T02:11:06.898Z,86.86
2022-12-03T02:12:06.877Z,86.86
2022-12-03T02:13:06.893Z,87.31
2022-12-03T02:14:06.910Z,87.56
2022-12-03T02:15:06.908Z,87.56
2022-12-03T02:16:06.946Z,87.48
2022-12-03T02:17:06.895Z,87.23
2022-12-03T02:18:06.904Z,87.55
2022-12-03T02:19:06.900Z,87.53
2022-12-03T02:20:06.918Z,87.19
2022-12-03T02:21:06.897Z,87.44
2022-12-03T02:22:06.901Z,87.39
2022-12-03T02:23:06.895Z,87.06
2022-12-03T02:24:06.898Z,86.54
2022-12-03T02:25:06.923Z,86.21
2022-12-03T02:26:06.882Z,86.21
2022-12-03T02:27:06.881Z,86.5
2022-12-03T02:28:06.881Z,86.7
2022-12-03T02:29:06.906Z,87.04
2022-12-03T02:30:06.907Z,86.63
2022-12-03T02:31:06.936Z,86.65
2022-12-03T02:32:06.875Z,87
2022-12-03T02:33:06.885Z,86.95
2022-12-03T02:34:06.874Z,86.61
2022-12-03T02:35:06.897Z,86.39
2022-12-03T02:36:06.880Z,86.33
2022-12-03T02:37:06.881Z,86.09
2022-12-03T02:38:06.879Z,86.2
2022-12-03T02:39:06.882Z,86.04
2022-12-03T02:40:06.886Z,85.85
2022-12-03T02:41:06.879Z,85.9
2022-12-03T02:42:06.878Z,85.96
2022-12-03T02:43:06.874Z,86.07
2022-12-03T02:44:06.891Z,86.07
2022-12-03T02:45:06.887Z,85.61
2022-12-03T02:46:06.895Z,85.86
2022-12-03T02:47:06.909Z,85.79
2022-12-03T02:48:06.875Z,85.5
2022-12-03T02:49:06.892Z,85.56
2022-12-03T02:50:06.901Z,85.53
2022-12-03T02:51:06.888Z,85.57
2022-12-03T02:52:06.895Z,85.39
2022-12-03T02:53:06.895Z,85.31
2022-12-03T02:54:06.895Z,85.02
2022-12-03T02:55:06.911Z,85.31
2022-12-03T02:56:06.888Z,85.51
2022-12-03T02:57:06.888Z,85.29
2022-12-03T02:58:06.884Z,84.96
2022-12-03T02:59:06.907Z,85.12
2022-12-03T03:00:06.910Z,85.12
2022-12-03T03:01:06.945Z,85.65
2022-12-03T03:02:06.931Z,85.33
2022-12-03T03:03:06.884Z,85.65
2022-12-03T03:04:06.898Z,86.01
2022-12-03T03:05:06.906Z,86.46
2022-12-03T03:06:06.890Z,86.54
2022-12-03T03:07:06.893Z,86.14
2022-12-03T03:08:06.915Z,85.94
2022-12-03T03:09:06.889Z,85.58
2022-12-03T03:10:06.902Z,85.78
2022-12-03T03:11:06.884Z,85.87
2022-12-03T03:12:06.884Z,85.86
2022-12-03T03:13:06.893Z,85.7
2022-12-03T03:14:06.909Z,85.63
2022-12-03T03:15:06.911Z,85.47
2022-12-03T03:16:06.944Z,85.38
2022-12-03T03:17:06.892Z,85.14
2022-12-03T03:18:06.891Z,85.02
2022-12-03T03:19:06.888Z,84.81
2022-12-03T03:20:06.911Z,85.25
2022-12-03T03:21:06.905Z,85.18
2022-12-03T03:22:06.895Z,85.18
2022-12-03T03:23:06.906Z,85.61
2022-12-03T03:24:06.889Z,86.13
2022-12-03T03:25:06.909Z,86.25
2022-12-03T03:26:06.887Z,86.08
2022-12-03T03:27:06.890Z,86.17
2022-12-03T03:28:06.884Z,86.31
2022-12-03T03:29:06.914Z,86.4
2022-12-03T03:30:06.890Z,86.4
2022-12-03T03:31:06.877Z,86.92
2022-12-03T03:32:06.908Z,86.92
2022-12-03T03:33:06.894Z,87.9
2022-12-03T03:34:06.870Z,87.8
2022-12-03T03:35:06.898Z,87.25
2022-12-03T03:36:06.875Z,87.51
2022-12-03T03:37:06.878Z,87.35
2022-12-03T03:38:06.877Z,86.98
2022-12-03T03:39:06.873Z,87.72
2022-12-03T03:40:06.894Z,87.85
2022-12-03T03:41:06.875Z,87.58
2022-12-03T03:42:06.879Z,87.54
2022-12-03T03:43:06.877Z,87.57
2022-12-03T03:44:06.883Z,87.75
2022-12-03T03:45:06.883Z,88
2022-12-03T03:46:06.982Z,88.04
2022-12-03T03:47:06.870Z,87.92
2022-12-03T03:48:06.874Z,87.93
2022-12-03T03:49:06.869Z,88.19
2022-12-03T03:50:06.888Z,88.39
2022-12-03T03:51:06.874Z,89.38
2022-12-03T03:52:06.879Z,89.38
2022-12-03T03:53:06.894Z,90.18
2022-12-03T03:54:06.876Z,89.91
2022-12-03T03:55:06.896Z,89.76
2022-12-03T03:56:06.891Z,89.59
2022-12-03T03:57:06.891Z,89.49
2022-12-03T03:58:06.891Z,89.45
2022-12-03T03:59:06.911Z,89.45
2022-12-03T04:00:06.918Z,89.45
2022-12-03T04:01:06.985Z,89.95
2022-12-03T04:02:06.902Z,90.08
2022-12-03T04:03:06.891Z,90
2022-12-03T04:04:06.930Z,89.6
2022-12-03T04:05:06.910Z,89.62
2022-12-03T04:06:06.886Z,89.38
2022-12-03T04:07:06.886Z,89.84
2022-12-03T04:08:06.966Z,90.12
2022-12-03T04:09:06.897Z,89.97
2022-12-03T04:10:06.914Z,89.76
2022-12-03T04:11:06.888Z,89.55
2022-12-03T04:12:06.896Z,89.72
2022-12-03T04:13:06.886Z,90.23
2022-12-03T04:14:06.917Z,90.73
2022-12-03T04:15:06.910Z,90.75
2022-12-03T04:16:06.942Z,90.45
2022-12-03T04:17:06.887Z,90.41
2022-12-03T04:18:06.891Z,90.86
2022-12-03T04:19:06.887Z,89.8
2022-12-03T04:20:06.904Z,89.28
2022-12-03T04:21:06.888Z,88.53
2022-12-03T04:22:06.904Z,88.1
2022-12-03T04:23:06.888Z,88.02
2022-12-03T04:24:06.892Z,87.83
2022-12-03T04:25:07.002Z,87.52
2022-12-03T04:26:06.885Z,87.8
2022-12-03T04:27:06.890Z,87.33
2022-12-03T04:28:06.891Z,87.16
2022-12-03T04:29:06.913Z,87.02
2022-12-03T04:30:06.898Z,87.02
2022-12-03T04:31:06.932Z,87.81
2022-12-03T04:32:06.884Z,88
2022-12-03T04:33:06.886Z,87.75
2022-12-03T04:34:06.883Z,87.81
2022-12-03T04:35:06.959Z,88.34
2022-12-03T04:36:06.868Z,88.6
2022-12-03T04:37:06.887Z,88.55
2022-12-03T04:38:06.887Z,88.55
2022-12-03T04:39:06.884Z,88.54
2022-12-03T04:40:06.885Z,88.58
2022-12-03T04:41:06.878Z,89.06
2022-12-03T04:42:06.874Z,89.03
2022-12-03T04:43:06.869Z,89.04
2022-12-03T04:44:06.967Z,89.07
2022-12-03T04:45:06.891Z,88.91
2022-12-03T04:46:06.946Z,88.8
2022-12-03T04:47:06.888Z,88.76
2022-12-03T04:48:06.874Z,89.12
2022-12-03T04:49:06.876Z,89.25
2022-12-03T04:50:06.892Z,89.18
2022-12-03T04:51:06.902Z,89.75
2022-12-03T04:52:06.877Z,89.43
2022-12-03T04:53:06.874Z,89.59
2022-12-03T04:54:06.871Z,89.77
2022-12-03T04:55:06.887Z,89.33
2022-12-03T04:56:06.873Z,88.73
2022-12-03T04:57:06.868Z,88.26
2022-12-03T04:58:06.874Z,88.39
2022-12-03T04:59:10.124Z,88.09
2022-12-03T05:00:06.916Z,87.76
2022-12-03T05:01:06.929Z,87.9
2022-12-03T05:02:06.945Z,87.9
2022-12-03T05:03:06.939Z,87.81
2022-12-03T05:04:06.881Z,87.73
2022-12-03T05:05:06.911Z,87.53
2022-12-03T05:06:06.895Z,87.11
2022-12-03T05:07:06.880Z,86.63
2022-12-03T05:08:06.963Z,86.3
2022-12-03T05:09:06.882Z,86.46
2022-12-03T05:10:06.892Z,86.46
2022-12-03T05:11:06.881Z,86.67
2022-12-03T05:12:06.893Z,86.79
2022-12-03T05:13:06.894Z,87.04
2022-12-03T05:14:06.906Z,86.76
2022-12-03T05:15:06.906Z,86.72
2022-12-03T05:16:06.897Z,86.87
2022-12-03T05:17:07.004Z,87.81
2022-12-03T05:18:06.892Z,87.92
2022-12-03T05:19:06.894Z,87.98
2022-12-03T05:20:06.900Z,87.98
2022-12-03T05:21:06.883Z,88.5
2022-12-03T05:22:06.891Z,88.6
2022-12-03T05:23:06.887Z,89.1
2022-12-03T05:24:06.890Z,88.99
2022-12-03T05:25:06.906Z,88.71
2022-12-03T05:26:06.893Z,87.9
2022-12-03T05:27:06.913Z,87.57
2022-12-03T05:28:06.882Z,87.57
2022-12-03T05:29:06.908Z,86.93
2022-12-03T05:30:06.907Z,86.93
2022-12-03T05:31:06.944Z,87.3
2022-12-03T05:32:06.884Z,87.27
2022-12-03T05:33:06.889Z,86.61
2022-12-03T05:34:06.893Z,86.61
2022-12-03T05:35:06.902Z,86.42
2022-12-03T05:36:06.869Z,86.42
2022-12-03T05:37:06.892Z,86.27
2022-12-03T05:38:06.904Z,86.26
2022-12-03T05:39:06.896Z,85.99
2022-12-03T05:40:06.909Z,85.99
2022-12-03T05:41:06.890Z,85.74
2022-12-03T05:42:06.885Z,85.53
2022-12-03T05:43:06.886Z,85.45
2022-12-03T05:44:06.909Z,85.13
2022-12-03T05:45:06.908Z,85.22
2022-12-03T05:46:06.979Z,85.07
2022-12-03T05:47:06.877Z,84.91
2022-12-03T05:48:06.888Z,85.02
2022-12-03T05:49:06.889Z,85.42
2022-12-03T05:50:06.904Z,85.42
2022-12-03T05:51:06.877Z,85.79
2022-12-03T05:52:06.883Z,86.04
2022-12-03T05:53:06.899Z,85.64
2022-12-03T05:54:06.871Z,85.64
2022-12-03T05:55:06.885Z,85.64
2022-12-03T05:56:06.872Z,85.46
2022-12-03T05:57:06.880Z,85.69
2022-12-03T05:58:06.870Z,85.69
2022-12-03T05:59:06.920Z,85.87
2022-12-03T06:00:07.084Z,85.42
2022-12-03T06:01:06.873Z,85.43
2022-12-03T06:02:06.969Z,85.75
2022-12-03T06:03:07.028Z,85.74
2022-12-03T06:04:06.976Z,85.42
2022-12-03T06:05:06.932Z,85.53
2022-12-03T06:06:06.872Z,85.47
2022-12-03T06:07:09.726Z,85.61
2022-12-03T06:08:06.928Z,85.64
2022-12-03T06:09:06.871Z,85.67
2022-12-03T06:10:06.905Z,85.52
2022-12-03T06:11:06.875Z,85.13
2022-12-03T06:12:06.887Z,84.8
2022-12-03T06:13:06.875Z,85.06
2022-12-03T06:14:06.893Z,85.03
2022-12-03T06:15:06.890Z,85.05
2022-12-03T06:16:07.017Z,85.25
2022-12-03T06:17:06.869Z,85.4
2022-12-03T06:18:06.870Z,85.07
2022-12-03T06:19:06.889Z,86.74
2022-12-03T06:20:06.893Z,86.74
2022-12-03T06:21:06.888Z,85.88
2022-12-03T06:22:06.891Z,85.96
2022-12-03T06:23:06.891Z,85.8
2022-12-03T06:24:06.886Z,85.75
2022-12-03T06:25:07.038Z,86.42
2022-12-03T06:26:06.888Z,86.52
2022-12-03T06:27:06.887Z,86.44
2022-12-03T06:28:06.884Z,86.75
2022-12-03T06:29:06.897Z,86.96
2022-12-03T06:30:06.895Z,86.96
2022-12-03T06:31:07.011Z,86.48
2022-12-03T06:32:06.887Z,86.14
2022-12-03T06:33:06.891Z,86.29
2022-12-03T06:34:06.891Z,86.19
2022-12-03T06:35:06.903Z,85.96
2022-12-03T06:36:06.889Z,85.81
2022-12-03T06:37:06.886Z,86
2022-12-03T06:38:06.889Z,86.18
2022-12-03T06:39:06.888Z,85.95
2022-12-03T06:40:06.886Z,85.95
2022-12-03T06:41:06.892Z,85.78
2022-12-03T06:42:06.889Z,85.53
2022-12-03T06:43:06.875Z,85.33
2022-12-03T06:44:06.907Z,85.04
2022-12-03T06:45:06.918Z,85.04
2022-12-03T06:46:06.934Z,85.07
2022-12-03T06:47:06.890Z,85.53
2022-12-03T06:48:06.888Z,85.33
2022-12-03T06:49:06.886Z,85.44
2022-12-03T06:50:06.890Z,85.44
2022-12-03T06:51:06.890Z,85.7
2022-12-03T06:52:06.885Z,85.47
2022-12-03T06:53:06.890Z,85.48
2022-12-03T06:54:06.873Z,85.59
2022-12-03T06:55:06.905Z,85.31
2022-12-03T06:56:06.882Z,84.93
2022-12-03T06:57:06.896Z,85.09
2022-12-03T06:58:06.888Z,84.87
2022-12-03T06:59:06.908Z,84.89
2022-12-03T07:00:06.918Z,84.89
2022-12-03T07:01:06.882Z,85.13
2022-12-03T07:02:06.911Z,84.92
2022-12-03T07:03:06.927Z,84.55
2022-12-03T07:04:06.892Z,84.38
2022-12-03T07:05:06.903Z,84.38
2022-12-03T07:06:06.874Z,84.38
2022-12-03T07:07:06.874Z,84.92
2022-12-03T07:08:06.931Z,85.25
2022-12-03T07:09:06.877Z,85.21
2022-12-03T07:10:06.933Z,84.87
2022-12-03T07:11:06.873Z,84.84
2022-12-03T07:12:06.873Z,84.86
2022-12-03T07:13:06.870Z,84.3
2022-12-03T07:14:06.919Z,84.16
2022-12-03T07:15:06.885Z,84.2
2022-12-03T07:16:06.937Z,84.14
2022-12-03T07:17:06.874Z,84.37
2022-12-03T07:18:06.870Z,84.02
2022-12-03T07:19:06.892Z,83.61
2022-12-03T07:20:06.912Z,83.94
2022-12-03T07:21:06.874Z,84.11
2022-12-03T07:22:06.875Z,84.52
2022-12-03T07:23:06.871Z,84.25
2022-12-03T07:24:06.880Z,83.98
2022-12-03T07:25:06.885Z,83.88
2022-12-03T07:26:06.871Z,83.88
2022-12-03T07:27:06.876Z,83.71
2022-12-03T07:28:06.868Z,84.63
2022-12-03T07:29:06.883Z,84.97
2022-12-03T07:30:06.888Z,84.96
2022-12-03T07:31:06.938Z,84.99
2022-12-03T07:32:06.874Z,84.99
2022-12-03T07:33:06.889Z,84.87
2022-12-03T07:34:06.883Z,85.28
2022-12-03T07:35:06.911Z,85.31
2022-12-03T07:36:06.897Z,85.3
2022-12-03T07:37:06.880Z,85.56
2022-12-03T07:38:06.888Z,85.35
2022-12-03T07:39:06.871Z,85.84
2022-12-03T07:40:06.886Z,85.84
2022-12-03T07:41:06.882Z,85.99
2022-12-03T07:42:06.889Z,86.08
2022-12-03T07:43:06.894Z,85.45
2022-12-03T07:44:13.813Z,86.09
2022-12-03T07:45:06.910Z,85.89
2022-12-03T07:46:06.893Z,86.59
2022-12-03T07:47:06.978Z,87.1
2022-12-03T07:48:06.891Z,86.99
2022-12-03T07:49:06.888Z,86.89
2022-12-03T07:50:06.889Z,86.89
2022-12-03T07:51:06.871Z,87.13
2022-12-03T07:52:06.893Z,86.93
2022-12-03T07:53:06.900Z,87.44
2022-12-03T07:54:06.892Z,87.74
2022-12-03T07:55:06.927Z,87.6
2022-12-03T07:56:06.896Z,87.31
2022-12-03T07:57:06.889Z,87.38
2022-12-03T07:58:06.889Z,87.11
2022-12-03T07:59:06.907Z,86.83
2022-12-03T08:00:06.918Z,86.83
2022-12-03T08:01:06.963Z,87.49
2022-12-03T08:02:06.939Z,88
2022-12-03T08:03:06.881Z,87.38
2022-12-03T08:04:06.877Z,87.77
2022-12-03T08:05:06.906Z,88.75
2022-12-03T08:06:06.882Z,88.75
2022-12-03T08:07:06.890Z,88.74
2022-12-03T08:08:07.008Z,87.91
2022-12-03T08:09:06.889Z,88.48
2022-12-03T08:10:06.893Z,88.48
2022-12-03T08:11:06.878Z,89.29
2022-12-03T08:12:06.891Z,89.05
2022-12-03T08:13:06.898Z,88.27
2022-12-03T08:14:06.917Z,87.65
2022-12-03T08:15:06.909Z,87.69
2022-12-03T08:16:06.966Z,88.09
2022-12-03T08:17:06.885Z,88.02
2022-12-03T08:18:06.892Z,88.02
2022-12-03T08:19:06.874Z,88.55
2022-12-03T08:20:06.890Z,88
2022-12-03T08:21:06.880Z,87.24
2022-12-03T08:22:06.878Z,87.24
2022-12-03T08:23:06.878Z,87.13
2022-12-03T08:24:06.874Z,86.82
2022-12-03T08:25:06.892Z,86.56
2022-12-03T08:26:06.872Z,86.36
2022-12-03T08:27:06.870Z,85.57
2022-12-03T08:28:06.870Z,85.53
2022-12-03T08:29:06.883Z,85.34
2022-12-03T08:30:06.898Z,86.11
2022-12-03T08:31:06.875Z,86.79
2022-12-03T08:32:06.952Z,87.02
2022-12-03T08:33:06.874Z,87.4
2022-12-03T08:34:06.878Z,87.15
2022-12-03T08:35:06.889Z,87.15
2022-12-03T08:36:06.873Z,87.28
2022-12-03T08:37:06.873Z,87.08
2022-12-03T08:38:06.874Z,86.49
2022-12-03T08:39:06.870Z,86.42
2022-12-03T08:40:06.888Z,86.21
2022-12-03T08:41:06.874Z,86.48
2022-12-03T08:42:12.120Z,86.25
2022-12-03T08:43:06.879Z,85.62
2022-12-03T08:44:06.891Z,85.02
2022-12-03T08:45:06.892Z,85.6
2022-12-03T08:46:06.947Z,85.1
2022-12-03T08:47:06.886Z,85.84
2022-12-03T08:48:06.894Z,85.94
2022-12-03T08:49:06.892Z,85.76
2022-12-03T08:50:06.886Z,85.76
2022-12-03T08:51:06.883Z,85.87
2022-12-03T08:52:06.886Z,85.84
2022-12-03T08:53:06.900Z,85.97
2022-12-03T08:54:06.897Z,85.92
2022-12-03T08:55:06.906Z,86.12
2022-12-03T08:56:06.890Z,86.04
2022-12-03T08:57:06.892Z,85.54
2022-12-03T08:58:06.889Z,85.08
2022-12-03T08:59:06.914Z,84.72
2022-12-03T09:00:06.896Z,84.72
2022-12-03T09:01:07.008Z,84.61
2022-12-03T09:02:06.900Z,84.09
2022-12-03T09:03:06.878Z,84.39
2022-12-03T09:04:06.933Z,84.58
2022-12-03T09:05:06.912Z,84.63
2022-12-03T09:06:06.880Z,84.53
2022-12-03T09:07:06.892Z,84.69
2022-12-03T09:08:06.992Z,84.66
2022-12-03T09:09:07.068Z,84.9
2022-12-03T09:10:06.913Z,84.9
2022-12-03T09:11:06.885Z,84.48
2022-12-03T09:12:06.889Z,84.43
2022-12-03T09:13:06.891Z,84.54
2022-12-03T09:14:06.904Z,84.49
2022-12-03T09:15:06.905Z,84.57
2022-12-03T09:16:06.919Z,84.61
2022-12-03T09:17:07.025Z,84.28
2022-12-03T09:18:06.886Z,84.36
2022-12-03T09:19:06.889Z,84.63
2022-12-03T09:20:06.895Z,84.63
2022-12-03T09:21:06.888Z,84.31
2022-12-03T09:22:06.891Z,84.67
2022-12-03T09:23:06.888Z,84.76
2022-12-03T09:24:06.923Z,84.38
2022-12-03T09:25:06.902Z,84.36
2022-12-03T09:26:06.892Z,84.42
2022-12-03T09:27:06.884Z,84.46
2022-12-03T09:28:06.893Z,84.26
2022-12-03T09:29:11.924Z,83.88
2022-12-03T09:30:06.883Z,83.88
2022-12-03T09:31:06.890Z,84.55
2022-12-03T09:32:06.998Z,85.28
2022-12-03T09:33:06.874Z,85.28
2022-12-03T09:34:06.887Z,85.45
2022-12-03T09:35:06.913Z,85.43
2022-12-03T09:36:06.871Z,85.54
2022-12-03T09:37:06.880Z,84.9
2022-12-03T09:38:06.870Z,84.42
2022-12-03T09:39:06.876Z,84.49
2022-12-03T09:40:06.890Z,84.3
2022-12-03T09:41:06.870Z,84.38
2022-12-03T09:42:06.874Z,84.93
2022-12-03T09:43:06.870Z,84.94
2022-12-03T09:44:09.648Z,85.02
2022-12-03T09:45:06.879Z,85.41
2022-12-03T09:46:06.913Z,85.35
2022-12-03T09:47:06.870Z,85.16
2022-12-03T09:48:06.876Z,86.58
2022-12-03T09:49:12.254Z,86.69
2022-12-03T09:50:06.884Z,86.1
2022-12-03T09:51:06.874Z,85.77
2022-12-03T09:52:06.961Z,87.95
2022-12-03T09:53:06.893Z,86.53
2022-12-03T09:54:06.868Z,86.39
2022-12-03T09:55:06.893Z,88.49
2022-12-03T09:56:06.870Z,88.84
2022-12-03T09:57:06.874Z,89.06
2022-12-03T09:58:06.894Z,87.06
2022-12-03T09:59:06.903Z,88.6
2022-12-03T10:00:06.896Z,88.6
2022-12-03T10:01:06.954Z,88.53
2022-12-03T10:02:06.999Z,86.57
2022-12-03T10:03:06.883Z,86.07
2022-12-03T10:04:06.939Z,85.41
2022-12-03T10:05:06.962Z,85.68
2022-12-03T10:06:06.885Z,86.81
2022-12-03T10:07:06.885Z,86.81
2022-12-03T10:08:06.940Z,86.64
2022-12-03T10:09:06.880Z,85.93
2022-12-03T10:10:06.905Z,85.93
2022-12-03T10:11:06.926Z,86.21
2022-12-03T10:12:06.898Z,85.98
2022-12-03T10:13:06.887Z,86.54
2022-12-03T10:14:06.908Z,85.93
2022-12-03T10:15:06.903Z,85.85
2022-12-03T10:16:06.886Z,85.56
2022-12-03T10:17:07.034Z,86.85
2022-12-03T10:18:06.890Z,86.12
2022-12-03T10:19:06.893Z,85.74
2022-12-03T10:20:06.898Z,85.74
2022-12-03T10:21:06.949Z,84.93
2022-12-03T10:22:06.885Z,84.92
2022-12-03T10:23:06.887Z,84.62
2022-12-03T10:24:06.883Z,84.51
2022-12-03T10:25:06.907Z,84.15
2022-12-03T10:26:06.879Z,84.4
2022-12-03T10:27:06.891Z,84.3
2022-12-03T10:28:06.888Z,85.16
2022-12-03T10:29:06.912Z,85.37
2022-12-03T10:30:06.884Z,85.37
2022-12-03T10:31:06.973Z,84.91
2022-12-03T10:32:06.890Z,84.64
2022-12-03T10:33:06.885Z,86.71
2022-12-03T10:34:06.891Z,87.46
2022-12-03T10:35:06.905Z,87.1
2022-12-03T10:36:06.891Z,85.89
2022-12-03T10:37:06.884Z,85.26
2022-12-03T10:38:06.893Z,85.76
2022-12-03T10:39:06.896Z,85.42
2022-12-03T10:40:06.983Z,85.42
2022-12-03T10:41:06.893Z,85.75
2022-12-03T10:42:06.888Z,85.93
2022-12-03T10:43:06.890Z,86.12
2022-12-03T10:44:06.902Z,86.18
2022-12-03T10:45:06.904Z,86.71
2022-12-03T10:46:06.930Z,86.47
2022-12-03T10:47:07.107Z,86.47
2022-12-03T10:48:06.877Z,86.46
2022-12-03T10:49:06.874Z,86.46
2022-12-03T10:50:06.885Z,86.78
2022-12-03T10:51:06.875Z,86.44
2022-12-03T10:52:06.880Z,86.76
2022-12-03T10:53:06.871Z,86.53
2022-12-03T10:54:06.876Z,86.47
2022-12-03T10:55:06.887Z,86.45
2022-12-03T10:56:06.877Z,86.57
2022-12-03T10:57:06.870Z,86.57
2022-12-03T10:58:06.872Z,86.43
2022-12-03T10:59:06.888Z,86.5
2022-12-03T11:00:06.892Z,86.51
2022-12-03T11:01:06.940Z,86.81
2022-12-03T11:02:06.937Z,86.54
2022-12-03T11:03:06.907Z,86.57
2022-12-03T11:04:06.986Z,86.84
2022-12-03T11:05:06.887Z,87.45
2022-12-03T11:06:06.869Z,86.7
2022-12-03T11:07:06.877Z,86.67
2022-12-03T11:08:06.955Z,86.62
2022-12-03T11:09:09.049Z,86.04
2022-12-03T11:10:06.912Z,86.04
2022-12-03T11:11:06.876Z,87.05
2022-12-03T11:12:06.871Z,86.68
2022-12-03T11:13:06.895Z,86.07
2022-12-03T11:14:06.904Z,87.35
2022-12-03T11:15:06.906Z,87.12
2022-12-03T11:16:06.910Z,86.75
2022-12-03T11:17:06.915Z,86.53
2022-12-03T11:18:06.870Z,86.34
2022-12-03T11:19:06.892Z,86.78
2022-12-03T11:20:06.884Z,86.78
2022-12-03T11:21:06.905Z,87.1
2022-12-03T11:22:06.891Z,87.45
2022-12-03T11:23:06.888Z,87.77
2022-12-03T11:24:06.891Z,86.6
2022-12-03T11:25:06.900Z,86.5
2022-12-03T11:26:06.892Z,87.26
2022-12-03T11:27:06.902Z,87.26
2022-12-03T11:28:06.894Z,86.95
2022-12-03T11:29:06.906Z,87.23
2022-12-03T11:30:06.891Z,87.23
2022-12-03T11:31:06.941Z,87.22
2022-12-03T11:32:06.887Z,86.5
2022-12-03T11:33:06.891Z,86.52
2022-12-03T11:34:06.874Z,87.42
2022-12-03T11:35:06.911Z,87.43
2022-12-03T11:36:06.884Z,86.52
2022-12-03T11:37:06.889Z,85.5
2022-12-03T11:38:06.887Z,85.07
2022-12-03T11:39:06.886Z,85.25
2022-12-03T11:40:06.904Z,85.25
2022-12-03T11:41:06.892Z,86.02
2022-12-03T11:42:06.881Z,86.05
2022-12-03T11:43:06.902Z,86.49
2022-12-03T11:44:06.900Z,86.36
2022-12-03T11:45:06.905Z,87.46
2022-12-03T11:46:06.963Z,87.02
2022-12-03T11:47:06.948Z,86.51
2022-12-03T11:48:06.892Z,85.88
2022-12-03T11:49:06.891Z,85.88
2022-12-03T11:50:06.885Z,85.88
2022-12-03T11:51:06.886Z,86.42
2022-12-03T11:52:06.890Z,86.3
2022-12-03T11:53:06.887Z,86.4
2022-12-03T11:54:06.893Z,85.93
2022-12-03T11:55:06.905Z,86.68
2022-12-03T11:56:06.875Z,87.31
2022-12-03T11:57:06.882Z,86.92
2022-12-03T11:58:06.889Z,86.95
2022-12-03T11:59:06.899Z,85.89
2022-12-03T12:00:06.912Z,85.89
2022-12-03T12:01:06.873Z,85.91
2022-12-03T12:02:06.891Z,86.08
2022-12-03T12:03:06.967Z,86.08
2022-12-03T12:04:06.924Z,86.49
2022-12-03T12:05:06.888Z,86.17
2022-12-03T12:06:06.870Z,86.46
2022-12-03T12:07:06.874Z,86.64
2022-12-03T12:08:07.154Z,86.56
2022-12-03T12:09:06.878Z,86.93
2022-12-03T12:10:06.902Z,86.99
2022-12-03T12:11:06.869Z,87.35
2022-12-03T12:12:06.873Z,87.31
2022-12-03T12:13:06.870Z,87.96
2022-12-03T12:14:06.883Z,87.85
2022-12-03T12:15:06.881Z,87.49
2022-12-03T12:16:06.928Z,87.31
2022-12-03T12:17:06.872Z,86.99
2022-12-03T12:18:06.874Z,87.01
2022-12-03T12:19:06.876Z,87.25
2022-12-03T12:20:06.888Z,87.11
2022-12-03T12:21:06.869Z,87.18
2022-12-03T12:22:06.870Z,87.18
2022-12-03T12:23:06.884Z,86.47
2022-12-03T12:24:06.883Z,86.35
2022-12-03T12:25:06.905Z,85.79
2022-12-03T12:26:06.884Z,86.21
2022-12-03T12:27:06.881Z,86.04
2022-12-03T12:28:06.886Z,86.51
2022-12-03T12:29:06.908Z,86.73
2022-12-03T12:30:06.897Z,86.73
2022-12-03T12:31:06.969Z,87.01
2022-12-03T12:32:07.018Z,86.95
2022-12-03T12:33:06.893Z,87.02
2022-12-03T12:34:06.887Z,86.67
2022-12-03T12:35:06.901Z,86.41
2022-12-03T12:36:06.901Z,86.06
2022-12-03T12:37:06.887Z,86.02
2022-12-03T12:38:06.881Z,85.68
2022-12-03T12:39:06.885Z,85.74
2022-12-03T12:40:06.883Z,85.74
2022-12-03T12:41:06.888Z,85.89
2022-12-03T12:42:06.890Z,85.89
2022-12-03T12:43:12.665Z,85.72
2022-12-03T12:44:06.905Z,85.44
2022-12-03T12:45:07.076Z,85.41
2022-12-03T12:46:38.715Z,85.24
2022-12-03T12:47:06.931Z,84.78
2022-12-03T12:48:06.890Z,84.7
2022-12-03T12:49:06.884Z,85.86
2022-12-03T12:50:06.890Z,85.86
2022-12-03T12:51:06.887Z,85.82
2022-12-03T12:52:06.889Z,85.37
2022-12-03T12:53:06.887Z,84.84
2022-12-03T12:54:06.891Z,85.27
2022-12-03T12:55:06.906Z,85.21